createdAt,value
2023-12-30T00:29:20.874Z,7.05
2023-12-30T01:34:45.370Z,6.56
2023-12-30T01:40:28.727Z,6.31
2023-12-30T01:53:07.005Z,6.44
2023-12-30T01:59:29.128Z,6.44
2023-12-30T02:05:46.790Z,7.12
2023-12-30T02:12:00.263Z,6.49
2023-12-30T02:19:41.750Z,7.24
2023-12-30T02:25:42.646Z,6.77
2023-12-30T02:44:33.304Z,7.53
2023-12-30T02:50:12.669Z,7.40
2023-12-30T02:55:42.106Z,7.40
2023-12-30T03:01:29.652Z,7.05
2023-12-30T03:07:13.002Z,7.35
2023-12-30T03:12:44.380Z,7.61
2023-12-30T03:18:19.375Z,6.90
2023-12-30T03:24:00.986Z,6.74
2023-12-30T03:29:31.976Z,7.10
2023-12-30T03:35:06.534Z,7.03
2023-12-30T03:40:30.752Z,6.82
2023-12-30T03:46:17.683Z,7.11
2023-12-30T03:51:50.379Z,6.47
2023-12-30T03:57:23.466Z,6.37
2023-12-30T04:02:58.467Z,6.25
2023-12-30T04:08:25.032Z,6.20
2023-12-30T04:14:02.820Z,6.63
2023-12-30T04:19:29.058Z,6.09
2023-12-30T04:25:01.202Z,6.24
2023-12-30T04:30:28.897Z,5.86
2023-12-30T04:35:50.980Z,5.91
2023-12-30T04:41:22.947Z,5.90
2023-12-30T04:46:55.876Z,6.54
2023-12-30T04:52:25.851Z,5.85
2023-12-30T04:57:58.095Z,5.76
2023-12-30T05:03:19.790Z,5.93
2023-12-30T05:08:49.784Z,5.74
2023-12-30T05:14:15.725Z,5.52
2023-12-30T05:19:40.382Z,5.91
2023-12-30T05:25:03.245Z,5.70
2023-12-30T05:30:33.972Z,5.39
2023-12-30T05:36:06.165Z,5.81
2023-12-30T05:41:30.667Z,5.54
2023-12-30T05:47:18.275Z,5.40
2023-12-30T05:52:44.274Z,5.45
2023-12-30T05:58:10.074Z,5.92
2023-12-30T06:03:48.871Z,5.89
2023-12-30T06:09:34.269Z,5.50
2023-12-30T06:15:16.525Z,6.09
2023-12-30T06:21:09.246Z,5.44
2023-12-30T06:26:51.880Z,5.47
2023-12-30T06:32:33.844Z,6.13
2023-12-30T06:38:05.628Z,5.72
2023-12-30T06:44:20.010Z,6.21
2023-12-30T06:49:48.181Z,5.51
2023-12-30T06:55:42.185Z,5.54
2023-12-30T07:01:29.896Z,5.64
2023-12-30T07:07:34.234Z,6.13
2023-12-30T07:20:30.565Z,5.75
2023-12-30T07:25:53.731Z,5.27
2023-12-30T07:40:15.198Z,5.66
2023-12-30T08:17:06.825Z,5.63
2023-12-30T08:38:26.975Z,5.48
2023-12-30T08:44:02.405Z,4.98
2023-12-30T08:50:04.872Z,5.24
2023-12-30T08:56:03.241Z,4.74
2023-12-30T09:10:33.653Z,4.29
2023-12-30T09:24:16.912Z,5.56
2023-12-30T09:29:38.575Z,5.38
2023-12-30T09:35:07.835Z,5.73
2023-12-30T09:40:30.310Z,5.74
2023-12-30T09:52:13.205Z,5.22
2023-12-30T09:57:35.989Z,5.43
2023-12-30T10:03:00.277Z,5.53
2023-12-30T10:08:24.608Z,5.48
2023-12-30T10:13:53.448Z,5.48
2023-12-30T10:26:09.739Z,5.42
2023-12-30T10:32:59.956Z,6.12
2023-12-30T10:46:53.956Z,6.34
2023-12-30T10:53:21.077Z,6.43
2023-12-30T10:59:56.141Z,6.15
2023-12-30T11:13:09.851Z,5.95
2023-12-30T11:20:03.527Z,6.58
2023-12-30T11:26:03.990Z,6.57
2023-12-30T11:31:52.561Z,6.59
2023-12-30T11:37:14.848Z,6.39
2023-12-30T11:42:45.644Z,6.53
2023-12-30T11:48:13.093Z,6.49
2023-12-30T11:53:36.430Z,6.50
2023-12-30T11:58:58.485Z,6.59
2023-12-30T12:04:19.665Z,6.53
2023-12-30T12:09:43.938Z,6.50
2023-12-30T12:15:06.293Z,6.42
2023-12-30T12:20:27.805Z,6.36
2023-12-30T12:25:49.256Z,6.49
2023-12-30T12:31:14.419Z,6.60
2023-12-30T12:36:35.862Z,6.52
2023-12-30T12:41:57.471Z,6.46
2023-12-30T12:47:18.843Z,6.42
2023-12-30T12:52:40.502Z,6.34
2023-12-30T12:58:02.203Z,6.40
2023-12-30T13:03:24.291Z,6.20
2023-12-30T13:08:47.185Z,5.97
2023-12-30T13:14:11.078Z,5.75
2023-12-30T13:19:32.173Z,5.97
2023-12-30T13:24:53.687Z,5.74
2023-12-30T13:30:15.468Z,5.75
2023-12-30T13:35:38.963Z,5.48
2023-12-30T13:41:06.396Z,5.51
2023-12-30T13:46:33.401Z,5.46
2023-12-30T13:52:02.056Z,5.08
2023-12-30T13:57:27.657Z,5.10
2023-12-30T14:02:54.117Z,5.22
2023-12-30T14:08:34.448Z,5.31
2023-12-30T14:13:55.670Z,5.37
2023-12-30T14:19:17.844Z,5.28
2023-12-30T14:24:40.163Z,5.35
2023-12-30T14:30:03.069Z,5.49
2023-12-30T14:35:24.875Z,4.99
2023-12-30T14:40:45.979Z,5.46
2023-12-30T14:46:11.796Z,5.38
2023-12-30T14:51:33.286Z,5.53
2023-12-30T14:56:54.737Z,5.29
2023-12-30T15:02:15.969Z,5.30
2023-12-30T15:07:39.182Z,5.34
2023-12-30T15:13:00.957Z,5.57
2023-12-30T15:18:22.618Z,5.37
2023-12-30T15:23:44.016Z,5.46
2023-12-30T15:29:05.461Z,5.53
2023-12-30T15:34:26.560Z,5.43
2023-12-30T15:39:47.861Z,5.32
2023-12-30T15:45:10.323Z,5.31
2023-12-30T15:50:31.981Z,5.23
2023-12-30T15:55:53.496Z,5.05
2023-12-30T16:01:15.626Z,5.21
2023-12-30T16:06:38.285Z,5.13
2023-12-30T16:12:01.431Z,4.78
2023-12-30T16:17:27.169Z,5.17
2023-12-30T16:22:55.067Z,4.99
2023-12-30T16:28:17.656Z,4.48
2023-12-30T16:33:42.231Z,4.65
2023-12-30T16:39:03.885Z,4.63
2023-12-30T16:44:25.820Z,4.57
2023-12-30T16:49:47.265Z,4.51
2023-12-30T16:55:12.713Z,4.82
2023-12-30T17:00:34.810Z,4.73
2023-12-30T17:05:56.438Z,4.70
2023-12-30T17:11:17.850Z,4.93
2023-12-30T17:16:39.484Z,4.84
2023-12-30T17:22:01.175Z,4.77
2023-12-30T17:27:22.216Z,4.66
2023-12-30T17:32:43.358Z,4.71
2023-12-30T17:38:04.790Z,4.76
2023-12-30T17:43:27.966Z,4.73
2023-12-30T17:48:52.002Z,4.78
2023-12-30T17:54:13.226Z,4.90
2023-12-30T17:59:34.857Z,4.74
2023-12-30T18:04:56.521Z,4.73
2023-12-30T18:10:18.111Z,4.92
2023-12-30T18:15:39.834Z,4.94
2023-12-30T18:21:01.043Z,5.05
2023-12-30T18:26:22.016Z,5.05
2023-12-30T18:31:43.504Z,5.16
2023-12-30T18:37:06.695Z,5.16
2023-12-30T18:42:28.537Z,5.03
2023-12-30T18:47:49.806Z,5.24
2023-12-30T18:53:12.082Z,5.15
2023-12-30T18:58:34.407Z,4.96
2023-12-30T19:03:57.864Z,5.19
2023-12-30T19:09:20.038Z,5.13
2023-12-30T19:14:41.228Z,5.07
2023-12-30T19:20:05.125Z,4.96
2023-12-30T19:25:26.409Z,5.03
2023-12-30T19:30:47.557Z,4.72
2023-12-30T19:36:10.055Z,4.59
2023-12-30T19:41:38.611Z,4.35
2023-12-30T19:46:59.755Z,4.66
2023-12-30T19:52:20.860Z,4.45
2023-12-30T19:57:42.319Z,4.47
2023-12-30T20:03:06.378Z,4.32
2023-12-30T20:08:28.921Z,4.34
2023-12-30T20:13:50.606Z,4.38
2023-12-30T20:19:12.786Z,4.53
2023-12-30T20:24:34.046Z,4.22
2023-12-30T20:29:55.269Z,4.11
2023-12-30T20:35:17.640Z,4.33
2023-12-30T20:40:39.048Z,4.43
2023-12-30T20:46:01.146Z,4.38
2023-12-30T20:51:22.438Z,4.15
2023-12-30T20:56:46.322Z,4.45
2023-12-30T21:02:09.148Z,4.38
2023-12-30T21:07:35.856Z,4.46
2023-12-30T21:12:57.806Z,4.27
2023-12-30T21:18:19.189Z,4.16
2023-12-30T21:23:40.798Z,3.74
2023-12-30T21:29:02.503Z,3.90
2023-12-30T21:34:24.567Z,3.31
2023-12-30T21:39:47.527Z,3.30
2023-12-30T21:45:11.191Z,3.21
2023-12-30T21:50:34.957Z,3.43
2023-12-30T21:55:59.120Z,2.65
2023-12-30T22:01:21.839Z,2.63
2023-12-30T22:06:44.367Z,2.63
2023-12-30T22:12:06.298Z,2.80
2023-12-30T22:17:28.173Z,2.46
2023-12-30T22:22:50.750Z,2.37
2023-12-30T22:28:12.301Z,2.12
2023-12-30T22:33:34.138Z,2.47
2023-12-30T22:38:56.637Z,2.53
2023-12-30T22:44:17.607Z,2.52
2023-12-30T22:49:39.310Z,2.40
2023-12-30T22:55:04.186Z,2.28
2023-12-30T23:00:28.987Z,2.29
2023-12-30T23:05:50.144Z,2.03
2023-12-30T23:11:11.955Z,2.09
2023-12-30T23:16:33.139Z,1.94
2023-12-30T23:21:54.941Z,1.73
2023-12-30T23:27:19.645Z,1.71
2023-12-30T23:32:41.465Z,1.60
2023-12-30T23:38:02.966Z,1.46
2023-12-30T23:43:24.118Z,1.67
2023-12-30T23:48:45.488Z,1.62
2023-12-30T23:54:06.381Z,1.58
